Weather at Yaoqiang Airport

Public forecast

Using degrees Celsius for public forecast. Weather courtesy of forecast.io.

Current aviation weather report (METAR) for Yaoqiang Airport

Report is more than 6 hours old.

Retrieved 2021/09/23 16:15 UTC (1 day ago):

ZSJN 231615Z 04004MPS 010V070 5000 BR NSC 22/22 Q1017 NOSIG

Aviation forecast (TAF) for Yaoqiang Airport

Forecast is more than 12 hours old.

Retrieved 2021/08/27 18:04 UTC (28 days ago):

TAF ZSJN 271504Z 2718/2818 24003MPS 3500 BR NSC TX27/2806Z TN17/2721Z